ICAO code: LHPR | IATA code: QGY | SITA: QGYAPXH | AFTN: LHPRZPZX

Időjárási adatok

METAR LHPR 071645Z AUTO 00000KT 9000 NCD M02/M08 Q1039 NOSIG=
TAF LHPR 071415Z 0715/0724 28006KT CAVOK
BECMG 0715/0718 VRB02KT
TEMPO 0722/0724 6000 NSC=
Párásság
2023-02-07 17:00:00 UTC
-

Hőmérséklet
°C
 
Harmatpont
°C
 
Rel. páratartalom
%
 
QNH
hPa
 
Szélsebesség
m/s
Max
m/s
Szélirány
°
 
Csapadék (1 óra)
mm
 
Látótávolság
m
 
RVR
>1500 m RWY30
 
1. felhőréteg mennyisége
octa
 
1. felhőréteg alapja
m